sensor_id;sensor_type;location;lat;lon;timestamp;temperature;humidity
25280;DHT22;13225;47.804;12.116;2024-03-08T00:00:27;-1.10;99.90
25280;DHT22;13225;47.804;12.116;2024-03-08T00:02:52;-1.10;99.90
25280;DHT22;13225;47.804;12.116;2024-03-08T00:05:19;-1.20;99.90
25280;DHT22;13225;47.804;12.116;2024-03-08T00:07:45;-1.20;99.90
25280;DHT22;13225;47.804;12.116;2024-03-08T00:10:12;-1.20;99.90
25280;DHT22;13225;47.804;12.116;2024-03-08T00:12:41;-1.30;99.90
25280;DHT22;13225;47.804;12.116;2024-03-08T00:15:09;-1.20;99.90
25280;DHT22;13225;47.804;12.116;2024-03-08T00:17:36;-1.30;99.90
25280;DHT22;13225;47.804;12.116;2024-03-08T00:20:02;-1.20;99.90
25280;DHT22;13225;47.804;12.116;2024-03-08T00:22:36;-1.10;99.90
25280;DHT22;13225;47.804;12.116;2024-03-08T00:25:03;-1.10;99.90
25280;DHT22;13225;47.804;12.116;2024-03-08T00:27:29;-1.10;99.90
25280;DHT22;13225;47.804;12.116;2024-03-08T00:29:59;-1.20;99.90
25280;DHT22;13225;47.804;12.116;2024-03-08T00:32:24;-1.20;99.90
25280;DHT22;13225;47.804;12.116;2024-03-08T00:34:51;-1.30;99.90
25280;DHT22;13225;47.804;12.116;2024-03-08T00:37:20;-1.30;99.90
25280;DHT22;13225;47.804;12.116;2024-03-08T00:39:47;-1.20;99.90
25280;DHT22;13225;47.804;12.116;2024-03-08T00:42:14;-1.20;99.90
25280;DHT22;13225;47.804;12.116;2024-03-08T00:44:40;-1.20;99.90
25280;DHT22;13225;47.804;12.116;2024-03-08T00:47:06;-1.30;99.90
25280;DHT22;13225;47.804;12.116;2024-03-08T00:49:31;-1.40;99.90
25280;DHT22;13225;47.804;12.116;2024-03-08T00:51:57;-1.40;99.90
25280;DHT22;13225;47.804;12.116;2024-03-08T00:54:23;-1.50;99.90
25280;DHT22;13225;47.804;12.116;2024-03-08T00:56:48;-1.50;99.90
25280;DHT22;13225;47.804;12.116;2024-03-08T00:59:14;-1.50;99.90
25280;DHT22;13225;47.804;12.116;2024-03-08T01:01:40;-1.50;99.90
25280;DHT22;13225;47.804;12.116;2024-03-08T01:04:06;-1.50;99.90
25280;DHT22;13225;47.804;12.116;2024-03-08T01:06:33;-1.40;99.90
25280;DHT22;13225;47.804;12.116;2024-03-08T01:08:59;-1.40;99.90
25280;DHT22;13225;47.804;12.116;2024-03-08T01:11:24;-1.40;99.90
25280;DHT22;13225;47.804;12.116;2024-03-08T01:13:50;-1.50;99.90
25280;DHT22;13225;47.804;12.116;2024-03-08T01:16:15;-1.50;99.90
25280;DHT22;13225;47.804;12.116;2024-03-08T01:18:43;-1.60;99.90
25280;DHT22;13225;47.804;12.116;2024-03-08T01:21:08;-1.60;99.90
25280;DHT22;13225;47.804;12.116;2024-03-08T01:23:34;-1.50;99.90
25280;DHT22;13225;47.804;12.116;2024-03-08T01:26:00;-1.50;99.90
25280;DHT22;13225;47.804;12.116;2024-03-08T01:28:27;-1.60;99.90
25280;DHT22;13225;47.804;12.116;2024-03-08T01:30:53;-1.60;99.90
25280;DHT22;13225;47.804;12.116;2024-03-08T01:33:24;-1.70;99.90
25280;DHT22;13225;47.804;12.116;2024-03-08T01:35:54;-1.70;99.90
25280;DHT22;13225;47.804;12.116;2024-03-08T01:38:20;-1.60;99.90
25280;DHT22;13225;47.804;12.116;2024-03-08T01:40:46;-1.60;99.90
25280;DHT22;13225;47.804;12.116;2024-03-08T01:45:47;-1.50;99.90
25280;DHT22;13225;47.804;12.116;2024-03-08T01:48:16;-1.50;99.90
25280;DHT22;13225;47.804;12.116;2024-03-08T01:50:43;-1.60;99.90
25280;DHT22;13225;47.804;12.116;2024-03-08T01:53:10;-1.60;99.90
25280;DHT22;13225;47.804;12.116;2024-03-08T01:55:38;-1.50;99.90
25280;DHT22;13225;47.804;12.116;2024-03-08T01:58:04;-1.50;99.90
25280;DHT22;13225;47.804;12.116;2024-03-08T02:00:31;-1.50;99.90
25280;DHT22;13225;47.804;12.116;2024-03-08T02:02:57;-1.50;99.90
25280;DHT22;13225;47.804;12.116;2024-03-08T02:05:23;-1.60;99.90
25280;DHT22;13225;47.804;12.116;2024-03-08T02:07:49;-1.70;99.90
25280;DHT22;13225;47.804;12.116;2024-03-08T02:10:14;-1.80;99.90
25280;DHT22;13225;47.804;12.116;2024-03-08T02:12:41;-1.80;99.90
25280;DHT22;13225;47.804;12.116;2024-03-08T02:15:07;-1.90;99.90
25280;DHT22;13225;47.804;12.116;2024-03-08T02:17:32;-1.90;99.90
25280;DHT22;13225;47.804;12.116;2024-03-08T02:20:01;-1.90;99.90
25280;DHT22;13225;47.804;12.116;2024-03-08T02:22:28;-2.00;99.90
25280;DHT22;13225;47.804;12.116;2024-03-08T02:25:00;-2.00;99.90
25280;DHT22;13225;47.804;12.116;2024-03-08T02:27:29;-2.10;99.90
25280;DHT22;13225;47.804;12.116;2024-03-08T02:29:58;-2.00;99.90
25280;DHT22;13225;47.804;12.116;2024-03-08T02:32:24;-2.00;99.90
25280;DHT22;13225;47.804;12.116;2024-03-08T02:34:50;-2.00;99.90
25280;DHT22;13225;47.804;12.116;2024-03-08T02:37:19;-1.90;99.90
25280;DHT22;13225;47.804;12.116;2024-03-08T02:39:44;-1.90;99.90
25280;DHT22;13225;47.804;12.116;2024-03-08T02:42:10;-1.80;99.90
25280;DHT22;13225;47.804;12.116;2024-03-08T02:44:36;-1.70;99.90
25280;DHT22;13225;47.804;12.116;2024-03-08T02:47:02;-1.70;99.90
25280;DHT22;13225;47.804;12.116;2024-03-08T02:49:28;-1.60;99.90
25280;DHT22;13225;47.804;12.116;2024-03-08T02:51:54;-1.60;99.90
25280;DHT22;13225;47.804;12.116;2024-03-08T02:54:19;-1.60;99.90
25280;DHT22;13225;47.804;12.116;2024-03-08T02:56:46;-1.50;99.90
25280;DHT22;13225;47.804;12.116;2024-03-08T02:59:20;-1.50;99.90
25280;DHT22;13225;47.804;12.116;2024-03-08T03:01:46;-1.50;99.90
25280;DHT22;13225;47.804;12.116;2024-03-08T03:04:11;-1.50;99.90
25280;DHT22;13225;47.804;12.116;2024-03-08T03:06:37;-1.60;99.90
25280;DHT22;13225;47.804;12.116;2024-03-08T03:09:03;-1.60;99.90
25280;DHT22;13225;47.804;12.116;2024-03-08T03:11:31;-1.70;99.90
25280;DHT22;13225;47.804;12.116;2024-03-08T03:13:57;-1.70;99.90
25280;DHT22;13225;47.804;12.116;2024-03-08T03:16:22;-1.70;99.90
25280;DHT22;13225;47.804;12.116;2024-03-08T03:18:48;-1.70;99.90
25280;DHT22;13225;47.804;12.116;2024-03-08T03:21:14;-1.70;99.90
25280;DHT22;13225;47.804;12.116;2024-03-08T03:23:40;-1.70;99.90
25280;DHT22;13225;47.804;12.116;2024-03-08T03:26:08;-1.60;99.90
25280;DHT22;13225;47.804;12.116;2024-03-08T03:28:33;-1.60;99.90
25280;DHT22;13225;47.804;12.116;2024-03-08T03:30:59;-1.60;99.90
25280;DHT22;13225;47.804;12.116;2024-03-08T03:33:25;-1.50;99.90
25280;DHT22;13225;47.804;12.116;2024-03-08T03:35:51;-1.50;99.90
25280;DHT22;13225;47.804;12.116;2024-03-08T03:38:19;-1.40;99.90
25280;DHT22;13225;47.804;12.116;2024-03-08T03:40:48;-1.40;99.90
25280;DHT22;13225;47.804;12.116;2024-03-08T03:43:17;-1.40;99.90
25280;DHT22;13225;47.804;12.116;2024-03-08T03:45:43;-1.30;99.90
25280;DHT22;13225;47.804;12.116;2024-03-08T03:48:09;-1.20;99.90
25280;DHT22;13225;47.804;12.116;2024-03-08T03:50:35;-1.10;99.90
25280;DHT22;13225;47.804;12.116;2024-03-08T03:53:01;-1.10;99.90
25280;DHT22;13225;47.804;12.116;2024-03-08T03:55:28;-1.00;99.90
25280;DHT22;13225;47.804;12.116;2024-03-08T03:57:54;-1.00;99.90
25280;DHT22;13225;47.804;12.116;2024-03-08T04:00:19;-1.10;99.90
25280;DHT22;13225;47.804;12.116;2024-03-08T04:02:45;-1.00;99.90
25280;DHT22;13225;47.804;12.116;2024-03-08T04:05:12;-1.00;99.90
25280;DHT22;13225;47.804;12.116;2024-03-08T04:07:38;-1.00;99.90
25280;DHT22;13225;47.804;12.116;2024-03-08T04:10:05;-1.00;99.90
25280;DHT22;13225;47.804;12.116;2024-03-08T04:12:34;-1.00;99.90
25280;DHT22;13225;47.804;12.116;2024-03-08T04:15:00;-1.00;99.90
25280;DHT22;13225;47.804;12.116;2024-03-08T04:17:26;-1.00;99.90
25280;DHT22;13225;47.804;12.116;2024-03-08T04:19:52;-1.00;99.90
25280;DHT22;13225;47.804;12.116;2024-03-08T04:22:18;-1.00;99.90
25280;DHT22;13225;47.804;12.116;2024-03-08T04:24:46;-0.90;99.90
25280;DHT22;13225;47.804;12.116;2024-03-08T04:27:13;-0.90;99.90
25280;DHT22;13225;47.804;12.116;2024-03-08T04:29:39;-0.90;99.90
25280;DHT22;13225;47.804;12.116;2024-03-08T04:32:05;-0.80;99.90
25280;DHT22;13225;47.804;12.116;2024-03-08T04:36:59;-0.80;99.90
25280;DHT22;13225;47.804;12.116;2024-03-08T04:39:25;-0.80;99.90
25280;DHT22;13225;47.804;12.116;2024-03-08T04:41:54;-0.80;99.90
25280;DHT22;13225;47.804;12.116;2024-03-08T04:44:22;-0.90;99.90
25280;DHT22;13225;47.804;12.116;2024-03-08T04:46:48;-1.00;99.90
25280;DHT22;13225;47.804;12.116;2024-03-08T04:49:13;-0.90;99.90
25280;DHT22;13225;47.804;12.116;2024-03-08T04:51:39;-0.80;99.90
25280;DHT22;13225;47.804;12.116;2024-03-08T04:54:05;-0.70;99.90
25280;DHT22;13225;47.804;12.116;2024-03-08T04:56:31;-0.70;99.90
25280;DHT22;13225;47.804;12.116;2024-03-08T04:58:57;-0.70;99.90
25280;DHT22;13225;47.804;12.116;2024-03-08T05:01:23;-0.60;99.90
25280;DHT22;13225;47.804;12.116;2024-03-08T05:03:48;-0.60;99.90
25280;DHT22;13225;47.804;12.116;2024-03-08T05:06:16;-0.60;99.90
25280;DHT22;13225;47.804;12.116;2024-03-08T05:08:41;-0.60;99.90
25280;DHT22;13225;47.804;12.116;2024-03-08T05:11:07;-0.60;99.90
25280;DHT22;13225;47.804;12.116;2024-03-08T05:13:33;-0.60;99.90
25280;DHT22;13225;47.804;12.116;2024-03-08T05:15:59;-0.60;99.90
25280;DHT22;13225;47.804;12.116;2024-03-08T05:18:25;-0.70;99.90
25280;DHT22;13225;47.804;12.116;2024-03-08T05:20:53;-0.70;99.90
25280;DHT22;13225;47.804;12.116;2024-03-08T05:23:19;-0.70;99.90
25280;DHT22;13225;47.804;12.116;2024-03-08T05:25:45;-0.60;99.90
25280;DHT22;13225;47.804;12.116;2024-03-08T05:28:12;-0.70;99.90
25280;DHT22;13225;47.804;12.116;2024-03-08T05:30:38;-0.90;99.90
25280;DHT22;13225;47.804;12.116;2024-03-08T05:33:04;-0.90;99.90
25280;DHT22;13225;47.804;12.116;2024-03-08T05:35:30;-0.90;99.90
25280;DHT22;13225;47.804;12.116;2024-03-08T05:37:55;-0.90;99.90
25280;DHT22;13225;47.804;12.116;2024-03-08T05:40:21;-0.90;99.90
25280;DHT22;13225;47.804;12.116;2024-03-08T05:42:47;-0.80;99.90
25280;DHT22;13225;47.804;12.116;2024-03-08T05:45:12;-0.70;99.90
25280;DHT22;13225;47.804;12.116;2024-03-08T05:47:39;-0.70;99.90
25280;DHT22;13225;47.804;12.116;2024-03-08T05:50:05;-0.60;99.90
25280;DHT22;13225;47.804;12.116;2024-03-08T05:52:33;-0.60;99.90
25280;DHT22;13225;47.804;12.116;2024-03-08T05:54:59;-0.60;99.90
25280;DHT22;13225;47.804;12.116;2024-03-08T05:57:24;-0.60;99.90
25280;DHT22;13225;47.804;12.116;2024-03-08T05:59:50;-0.70;99.90
25280;DHT22;13225;47.804;12.116;2024-03-08T06:02:15;-0.80;99.90
25280;DHT22;13225;47.804;12.116;2024-03-08T06:04:46;-0.80;99.90
25280;DHT22;13225;47.804;12.116;2024-03-08T06:07:12;-0.80;99.90
25280;DHT22;13225;47.804;12.116;2024-03-08T06:09:38;-0.80;99.90
25280;DHT22;13225;47.804;12.116;2024-03-08T06:12:04;-0.70;99.90
25280;DHT22;13225;47.804;12.116;2024-03-08T06:14:31;-0.70;99.90
25280;DHT22;13225;47.804;12.116;2024-03-08T06:16:57;-0.60;99.90
25280;DHT22;13225;47.804;12.116;2024-03-08T06:19:23;-0.50;99.90
25280;DHT22;13225;47.804;12.116;2024-03-08T06:21:48;-0.50;99.90
25280;DHT22;13225;47.804;12.116;2024-03-08T06:24:14;-0.40;99.90
25280;DHT22;13225;47.804;12.116;2024-03-08T06:26:40;-0.40;99.90
25280;DHT22;13225;47.804;12.116;2024-03-08T06:29:06;-0.30;99.90
25280;DHT22;13225;47.804;12.116;2024-03-08T06:31:35;-0.20;99.90
25280;DHT22;13225;47.804;12.116;2024-03-08T06:34:04;-0.10;99.90
25280;DHT22;13225;47.804;12.116;2024-03-08T06:36:32;0.00;99.90
25280;DHT22;13225;47.804;12.116;2024-03-08T06:38:59;0.00;99.90
25280;DHT22;13225;47.804;12.116;2024-03-08T06:41:24;0.20;99.90
25280;DHT22;13225;47.804;12.116;2024-03-08T06:43:50;0.20;99.90
25280;DHT22;13225;47.804;12.116;2024-03-08T06:46:18;0.30;99.90
25280;DHT22;13225;47.804;12.116;2024-03-08T06:48:45;0.40;99.90
25280;DHT22;13225;47.804;12.116;2024-03-08T06:51:11;0.40;99.90
25280;DHT22;13225;47.804;12.116;2024-03-08T06:53:37;0.40;99.90
25280;DHT22;13225;47.804;12.116;2024-03-08T06:56:03;0.40;99.90
25280;DHT22;13225;47.804;12.116;2024-03-08T06:58:29;0.40;99.90
25280;DHT22;13225;47.804;12.116;2024-03-08T07:00:55;0.50;99.90
25280;DHT22;13225;47.804;12.116;2024-03-08T07:03:23;0.40;99.90
25280;DHT22;13225;47.804;12.116;2024-03-08T07:05:49;0.40;99.90
25280;DHT22;13225;47.804;12.116;2024-03-08T07:08:15;0.40;99.90
25280;DHT22;13225;47.804;12.116;2024-03-08T07:10:42;0.50;99.90
25280;DHT22;13225;47.804;12.116;2024-03-08T07:13:08;0.60;99.90
25280;DHT22;13225;47.804;12.116;2024-03-08T07:15:33;0.60;99.90
25280;DHT22;13225;47.804;12.116;2024-03-08T07:18:00;0.60;99.90
25280;DHT22;13225;47.804;12.116;2024-03-08T07:20:26;0.70;99.90
25280;DHT22;13225;47.804;12.116;2024-03-08T07:22:51;0.80;99.90
25280;DHT22;13225;47.804;12.116;2024-03-08T07:25:19;0.80;99.90
25280;DHT22;13225;47.804;12.116;2024-03-08T07:27:53;0.90;99.90
25280;DHT22;13225;47.804;12.116;2024-03-08T07:30:19;0.90;99.90
25280;DHT22;13225;47.804;12.116;2024-03-08T07:33:04;1.00;99.90
25280;DHT22;13225;47.804;12.116;2024-03-08T07:35:30;1.10;99.90
25280;DHT22;13225;47.804;12.116;2024-03-08T07:37:56;1.20;99.90
25280;DHT22;13225;47.804;12.116;2024-03-08T07:40:23;1.20;99.90
25280;DHT22;13225;47.804;12.116;2024-03-08T07:42:49;1.30;99.90
25280;DHT22;13225;47.804;12.116;2024-03-08T07:45:15;1.30;99.90
25280;DHT22;13225;47.804;12.116;2024-03-08T07:47:41;1.40;99.90
25280;DHT22;13225;47.804;12.116;2024-03-08T07:50:07;1.50;99.90
25280;DHT22;13225;47.804;12.116;2024-03-08T07:52:36;1.60;99.90
25280;DHT22;13225;47.804;12.116;2024-03-08T07:55:02;1.70;99.90
25280;DHT22;13225;47.804;12.116;2024-03-08T07:57:29;1.80;99.90
25280;DHT22;13225;47.804;12.116;2024-03-08T07:59:55;1.80;99.90
25280;DHT22;13225;47.804;12.116;2024-03-08T08:02:21;1.90;99.90
25280;DHT22;13225;47.804;12.116;2024-03-08T08:04:46;2.10;99.90
25280;DHT22;13225;47.804;12.116;2024-03-08T08:07:12;2.20;99.90
25280;DHT22;13225;47.804;12.116;2024-03-08T08:09:37;2.30;99.90
25280;DHT22;13225;47.804;12.116;2024-03-08T08:12:04;2.30;99.90
25280;DHT22;13225;47.804;12.116;2024-03-08T08:14:30;2.40;99.90
25280;DHT22;13225;47.804;12.116;2024-03-08T08:16:56;2.40;99.90
25280;DHT22;13225;47.804;12.116;2024-03-08T08:19:23;2.50;99.90
25280;DHT22;13225;47.804;12.116;2024-03-08T08:21:48;2.50;99.90
25280;DHT22;13225;47.804;12.116;2024-03-08T08:24:14;2.60;99.90
25280;DHT22;13225;47.804;12.116;2024-03-08T08:26:40;2.60;99.90
25280;DHT22;13225;47.804;12.116;2024-03-08T08:29:07;2.80;99.90
25280;DHT22;13225;47.804;12.116;2024-03-08T08:31:32;2.90;99.90
25280;DHT22;13225;47.804;12.116;2024-03-08T08:33:58;3.00;99.90
25280;DHT22;13225;47.804;12.116;2024-03-08T08:36:25;3.10;99.90
25280;DHT22;13225;47.804;12.116;2024-03-08T08:38:51;3.20;99.90
25280;DHT22;13225;47.804;12.116;2024-03-08T08:41:19;3.20;99.90
25280;DHT22;13225;47.804;12.116;2024-03-08T08:43:44;3.30;99.90
25280;DHT22;13225;47.804;12.116;2024-03-08T08:46:10;3.40;99.90
25280;DHT22;13225;47.804;12.116;2024-03-08T08:48:39;3.50;99.90
25280;DHT22;13225;47.804;12.116;2024-03-08T08:51:11;3.60;99.90
25280;DHT22;13225;47.804;12.116;2024-03-08T08:53:41;3.70;99.90
25280;DHT22;13225;47.804;12.116;2024-03-08T08:56:11;3.80;99.90
25280;DHT22;13225;47.804;12.116;2024-03-08T08:58:39;3.80;99.90
25280;DHT22;13225;47.804;12.116;2024-03-08T09:01:05;4.00;99.90
25280;DHT22;13225;47.804;12.116;2024-03-08T09:03:33;4.10;99.90
25280;DHT22;13225;47.804;12.116;2024-03-08T09:06:00;4.20;99.90
25280;DHT22;13225;47.804;12.116;2024-03-08T09:08:26;4.20;99.90
25280;DHT22;13225;47.804;12.116;2024-03-08T09:10:51;4.30;99.90
25280;DHT22;13225;47.804;12.116;2024-03-08T09:13:17;4.40;99.90
25280;DHT22;13225;47.804;12.116;2024-03-08T09:15:43;4.50;99.90
25280;DHT22;13225;47.804;12.116;2024-03-08T09:18:09;4.60;99.90
25280;DHT22;13225;47.804;12.116;2024-03-08T09:20:35;4.70;99.90
25280;DHT22;13225;47.804;12.116;2024-03-08T09:23:02;4.80;99.90
25280;DHT22;13225;47.804;12.116;2024-03-08T09:25:29;4.90;99.90
25280;DHT22;13225;47.804;12.116;2024-03-08T09:27:55;5.00;99.90
25280;DHT22;13225;47.804;12.116;2024-03-08T09:30:21;5.10;99.90
25280;DHT22;13225;47.804;12.116;2024-03-08T09:32:47;5.30;99.90
25280;DHT22;13225;47.804;12.116;2024-03-08T09:35:12;5.40;99.90
25280;DHT22;13225;47.804;12.116;2024-03-08T09:37:38;5.40;99.90
25280;DHT22;13225;47.804;12.116;2024-03-08T09:40:04;5.50;99.90
25280;DHT22;13225;47.804;12.116;2024-03-08T09:42:35;5.50;99.90
25280;DHT22;13225;47.804;12.116;2024-03-08T09:45:05;5.60;99.90
25280;DHT22;13225;47.804;12.116;2024-03-08T09:47:34;5.70;99.90
25280;DHT22;13225;47.804;12.116;2024-03-08T09:50:05;5.90;99.90
25280;DHT22;13225;47.804;12.116;2024-03-08T09:52:35;5.90;99.90
25280;DHT22;13225;47.804;12.116;2024-03-08T09:55:06;5.80;99.90
25280;DHT22;13225;47.804;12.116;2024-03-08T09:57:33;5.90;99.90
25280;DHT22;13225;47.804;12.116;2024-03-08T09:59:59;5.90;99.90
25280;DHT22;13225;47.804;12.116;2024-03-08T10:02:25;6.00;99.90
25280;DHT22;13225;47.804;12.116;2024-03-08T10:04:51;6.10;99.90
25280;DHT22;13225;47.804;12.116;2024-03-08T10:07:19;6.10;99.90
25280;DHT22;13225;47.804;12.116;2024-03-08T10:09:44;6.30;99.90
25280;DHT22;13225;47.804;12.116;2024-03-08T10:12:16;6.20;99.90
25280;DHT22;13225;47.804;12.116;2024-03-08T10:14:42;6.40;99.90
25280;DHT22;13225;47.804;12.116;2024-03-08T10:17:08;6.50;99.90
25280;DHT22;13225;47.804;12.116;2024-03-08T10:19:34;6.60;99.90
25280;DHT22;13225;47.804;12.116;2024-03-08T10:22:00;6.70;99.90
25280;DHT22;13225;47.804;12.116;2024-03-08T10:24:26;6.70;99.90
25280;DHT22;13225;47.804;12.116;2024-03-08T10:27:01;6.80;99.90
25280;DHT22;13225;47.804;12.116;2024-03-08T10:29:30;6.90;99.90
25280;DHT22;13225;47.804;12.116;2024-03-08T10:31:56;7.00;99.90
25280;DHT22;13225;47.804;12.116;2024-03-08T10:34:23;7.10;99.90
25280;DHT22;13225;47.804;12.116;2024-03-08T10:36:50;7.10;99.90
25280;DHT22;13225;47.804;12.116;2024-03-08T10:39:23;7.20;99.90
25280;DHT22;13225;47.804;12.116;2024-03-08T10:41:58;7.30;99.90
25280;DHT22;13225;47.804;12.116;2024-03-08T10:47:03;7.50;99.90
25280;DHT22;13225;47.804;12.116;2024-03-08T10:49:32;7.60;99.90
25280;DHT22;13225;47.804;12.116;2024-03-08T10:52:05;7.60;99.90
25280;DHT22;13225;47.804;12.116;2024-03-08T10:54:34;7.60;99.90
25280;DHT22;13225;47.804;12.116;2024-03-08T10:57:05;7.70;99.90
25280;DHT22;13225;47.804;12.116;2024-03-08T10:59:31;7.70;99.90
25280;DHT22;13225;47.804;12.116;2024-03-08T11:01:59;7.70;99.90
25280;DHT22;13225;47.804;12.116;2024-03-08T11:04:25;7.80;99.90
25280;DHT22;13225;47.804;12.116;2024-03-08T11:06:51;8.00;99.90
25280;DHT22;13225;47.804;12.116;2024-03-08T11:09:28;8.20;99.90
25280;DHT22;13225;47.804;12.116;2024-03-08T11:14:46;8.30;99.90
25280;DHT22;13225;47.804;12.116;2024-03-08T11:17:14;8.30;99.90
25280;DHT22;13225;47.804;12.116;2024-03-08T11:19:46;8.60;99.90
25280;DHT22;13225;47.804;12.116;2024-03-08T11:22:26;8.70;99.90
25280;DHT22;13225;47.804;12.116;2024-03-08T11:24:53;8.70;99.90
25280;DHT22;13225;47.804;12.116;2024-03-08T11:27:19;8.80;99.90
25280;DHT22;13225;47.804;12.116;2024-03-08T11:30:05;8.90;99.90
25280;DHT22;13225;47.804;12.116;2024-03-08T11:32:37;8.90;99.90
25280;DHT22;13225;47.804;12.116;2024-03-08T11:35:10;9.00;99.90
25280;DHT22;13225;47.804;12.116;2024-03-08T11:37:45;9.10;99.90
25280;DHT22;13225;47.804;12.116;2024-03-08T11:40:12;9.10;99.90
25280;DHT22;13225;47.804;12.116;2024-03-08T11:42:47;9.20;99.90
25280;DHT22;13225;47.804;12.116;2024-03-08T11:45:14;9.20;99.90
25280;DHT22;13225;47.804;12.116;2024-03-08T11:47:44;9.40;99.90
25280;DHT22;13225;47.804;12.116;2024-03-08T11:50:13;9.50;99.90
25280;DHT22;13225;47.804;12.116;2024-03-08T11:52:39;9.50;99.90
25280;DHT22;13225;47.804;12.116;2024-03-08T11:55:05;9.60;99.90
25280;DHT22;13225;47.804;12.116;2024-03-08T11:57:33;9.70;99.90
25280;DHT22;13225;47.804;12.116;2024-03-08T11:59:59;9.80;99.90
25280;DHT22;13225;47.804;12.116;2024-03-08T12:02:33;9.80;99.90
25280;DHT22;13225;47.804;12.116;2024-03-08T12:05:04;9.80;99.90
25280;DHT22;13225;47.804;12.116;2024-03-08T12:07:31;9.90;99.90
25280;DHT22;13225;47.804;12.116;2024-03-08T12:10:15;10.00;99.90
25280;DHT22;13225;47.804;12.116;2024-03-08T12:12:52;10.10;99.90
25280;DHT22;13225;47.804;12.116;2024-03-08T12:15:19;10.20;99.90
25280;DHT22;13225;47.804;12.116;2024-03-08T12:17:47;10.20;99.90
25280;DHT22;13225;47.804;12.116;2024-03-08T12:20:27;10.50;99.90
25280;DHT22;13225;47.804;12.116;2024-03-08T12:22:56;11.00;99.90
25280;DHT22;13225;47.804;12.116;2024-03-08T12:25:22;11.50;99.90
25280;DHT22;13225;47.804;12.116;2024-03-08T12:27:48;12.00;99.90
25280;DHT22;13225;47.804;12.116;2024-03-08T12:30:26;12.50;99.90
25280;DHT22;13225;47.804;12.116;2024-03-08T12:33:00;12.90;99.90
25280;DHT22;13225;47.804;12.116;2024-03-08T12:35:30;12.90;99.90
25280;DHT22;13225;47.804;12.116;2024-03-08T12:37:58;13.00;99.90
25280;DHT22;13225;47.804;12.116;2024-03-08T12:40:31;13.20;99.90
25280;DHT22;13225;47.804;12.116;2024-03-08T12:42:58;13.50;99.90
25280;DHT22;13225;47.804;12.116;2024-03-08T12:45:24;13.60;99.90
25280;DHT22;13225;47.804;12.116;2024-03-08T12:47:54;13.60;99.90
25280;DHT22;13225;47.804;12.116;2024-03-08T12:50:21;13.60;99.90
25280;DHT22;13225;47.804;12.116;2024-03-08T12:52:47;13.60;99.90
25280;DHT22;13225;47.804;12.116;2024-03-08T12:55:14;13.50;99.90
25280;DHT22;13225;47.804;12.116;2024-03-08T12:57:41;13.30;99.90
25280;DHT22;13225;47.804;12.116;2024-03-08T13:00:07;13.50;99.90
25280;DHT22;13225;47.804;12.116;2024-03-08T13:02:39;13.40;99.90
25280;DHT22;13225;47.804;12.116;2024-03-08T13:05:05;13.40;99.90
25280;DHT22;13225;47.804;12.116;2024-03-08T13:07:31;13.60;99.90
25280;DHT22;13225;47.804;12.116;2024-03-08T13:09:57;13.90;99.90
25280;DHT22;13225;47.804;12.116;2024-03-08T13:12:25;13.80;99.90
25280;DHT22;13225;47.804;12.116;2024-03-08T13:14:50;13.70;99.90
25280;DHT22;13225;47.804;12.116;2024-03-08T13:17:16;13.40;99.90
25280;DHT22;13225;47.804;12.116;2024-03-08T13:19:44;13.50;99.90
25280;DHT22;13225;47.804;12.116;2024-03-08T13:22:10;13.30;99.90
25280;DHT22;13225;47.804;12.116;2024-03-08T13:24:44;13.10;99.90
25280;DHT22;13225;47.804;12.116;2024-03-08T13:27:11;13.30;99.90
25280;DHT22;13225;47.804;12.116;2024-03-08T13:29:48;13.60;99.90
25280;DHT22;13225;47.804;12.116;2024-03-08T13:32:15;13.90;99.90
25280;DHT22;13225;47.804;12.116;2024-03-08T13:34:41;14.10;99.90
25280;DHT22;13225;47.804;12.116;2024-03-08T13:37:07;14.20;99.90
25280;DHT22;13225;47.804;12.116;2024-03-08T13:39:35;14.20;99.90
25280;DHT22;13225;47.804;12.116;2024-03-08T13:42:15;14.30;99.90
25280;DHT22;13225;47.804;12.116;2024-03-08T13:44:48;14.10;99.90
25280;DHT22;13225;47.804;12.116;2024-03-08T13:47:16;13.90;99.90
25280;DHT22;13225;47.804;12.116;2024-03-08T13:49:42;13.80;99.90
25280;DHT22;13225;47.804;12.116;2024-03-08T13:52:10;13.40;99.90
25280;DHT22;13225;47.804;12.116;2024-03-08T13:54:36;13.60;99.90
25280;DHT22;13225;47.804;12.116;2024-03-08T13:57:02;13.80;99.90
25280;DHT22;13225;47.804;12.116;2024-03-08T13:59:35;13.90;99.90
25280;DHT22;13225;47.804;12.116;2024-03-08T14:02:02;14.00;99.90
25280;DHT22;13225;47.804;12.116;2024-03-08T14:04:28;13.90;99.90
25280;DHT22;13225;47.804;12.116;2024-03-08T14:06:54;13.80;99.90
25280;DHT22;13225;47.804;12.116;2024-03-08T14:09:23;13.90;99.90
25280;DHT22;13225;47.804;12.116;2024-03-08T14:11:53;13.70;99.90
25280;DHT22;13225;47.804;12.116;2024-03-08T14:14:20;13.70;99.90
25280;DHT22;13225;47.804;12.116;2024-03-08T14:16:47;13.70;99.90
25280;DHT22;13225;47.804;12.116;2024-03-08T14:19:13;13.70;99.90
25280;DHT22;13225;47.804;12.116;2024-03-08T14:21:40;13.70;99.90
25280;DHT22;13225;47.804;12.116;2024-03-08T14:24:07;13.60;99.90
25280;DHT22;13225;47.804;12.116;2024-03-08T14:26:33;13.50;99.90
25280;DHT22;13225;47.804;12.116;2024-03-08T14:28:59;13.50;99.90
25280;DHT22;13225;47.804;12.116;2024-03-08T14:31:25;13.70;99.90
25280;DHT22;13225;47.804;12.116;2024-03-08T14:33:51;13.90;99.90
25280;DHT22;13225;47.804;12.116;2024-03-08T14:36:18;13.70;99.90
25280;DHT22;13225;47.804;12.116;2024-03-08T14:38:45;14.00;99.90
25280;DHT22;13225;47.804;12.116;2024-03-08T14:41:12;14.20;99.90
25280;DHT22;13225;47.804;12.116;2024-03-08T14:43:42;14.20;99.90
25280;DHT22;13225;47.804;12.116;2024-03-08T14:46:13;14.20;99.90
25280;DHT22;13225;47.804;12.116;2024-03-08T14:48:55;14.10;99.90
25280;DHT22;13225;47.804;12.116;2024-03-08T14:51:23;13.90;99.90
25280;DHT22;13225;47.804;12.116;2024-03-08T14:53:52;13.90;99.90
25280;DHT22;13225;47.804;12.116;2024-03-08T14:56:20;13.70;99.90
25280;DHT22;13225;47.804;12.116;2024-03-08T14:58:46;13.60;99.90
25280;DHT22;13225;47.804;12.116;2024-03-08T15:01:15;13.40;99.90
25280;DHT22;13225;47.804;12.116;2024-03-08T15:03:41;13.30;99.90
25280;DHT22;13225;47.804;12.116;2024-03-08T15:06:08;13.60;99.90
25280;DHT22;13225;47.804;12.116;2024-03-08T15:08:39;13.50;99.90
25280;DHT22;13225;47.804;12.116;2024-03-08T15:11:08;13.50;99.90
25280;DHT22;13225;47.804;12.116;2024-03-08T15:13:34;13.50;99.90
25280;DHT22;13225;47.804;12.116;2024-03-08T15:16:08;13.50;99.90
25280;DHT22;13225;47.804;12.116;2024-03-08T15:18:34;13.60;99.90
25280;DHT22;13225;47.804;12.116;2024-03-08T15:21:03;13.80;99.90
25280;DHT22;13225;47.804;12.116;2024-03-08T15:23:33;13.70;99.90
25280;DHT22;13225;47.804;12.116;2024-03-08T15:25:58;13.50;99.90
25280;DHT22;13225;47.804;12.116;2024-03-08T15:28:24;13.30;99.90
25280;DHT22;13225;47.804;12.116;2024-03-08T15:30:59;13.20;99.90